createdAt,value
2022-12-28T00:01:13.732Z,5.44
2022-12-28T00:03:15.361Z,5.42
2022-12-28T00:05:17.942Z,5.42
2022-12-28T00:07:19.488Z,5.43
2022-12-28T00:09:27.529Z,5.42
2022-12-28T00:11:31.044Z,5.42
2022-12-28T00:13:34.013Z,5.42
2022-12-28T00:15:37.266Z,5.44
2022-12-28T00:17:38.712Z,5.42
2022-12-28T00:19:40.282Z,5.43
2022-12-28T00:21:42.828Z,5.41
2022-12-28T00:23:44.743Z,5.43
2022-12-28T00:25:46.266Z,5.42
2022-12-28T00:27:47.783Z,5.42
2022-12-28T00:29:49.403Z,5.42
2022-12-28T00:31:51.061Z,5.43
2022-12-28T00:33:52.670Z,5.44
2022-12-28T00:35:55.488Z,5.44
2022-12-28T00:37:56.944Z,5.45
2022-12-28T00:39:58.893Z,5.44
2022-12-28T00:42:00.413Z,5.44
2022-12-28T00:44:01.793Z,5.45
2022-12-28T00:46:06.215Z,5.44
2022-12-28T00:48:09.088Z,5.44
2022-12-28T00:50:12.598Z,5.45
2022-12-28T00:52:14.197Z,5.45
2022-12-28T00:54:15.816Z,5.45
2022-12-28T00:56:19.939Z,5.46
2022-12-28T00:58:22.622Z,5.45
2022-12-28T01:00:24.153Z,5.47
2022-12-28T01:02:25.702Z,5.47
2022-12-28T01:04:27.126Z,5.46
2022-12-28T01:06:29.143Z,5.45
2022-12-28T01:08:32.118Z,5.46
2022-12-28T01:10:33.587Z,5.45
2022-12-28T01:12:38.355Z,5.45
2022-12-28T01:14:40.067Z,5.44
2022-12-28T01:16:41.607Z,5.45
2022-12-28T01:18:44.427Z,5.48
2022-12-28T01:20:45.939Z,5.48
2022-12-28T01:22:47.511Z,5.48
2022-12-28T01:24:49.019Z,5.47
2022-12-28T01:26:50.591Z,5.48
2022-12-28T01:28:52.341Z,5.49
2022-12-28T01:30:53.926Z,5.49
2022-12-28T01:32:55.440Z,5.47
2022-12-28T01:34:56.928Z,5.46
2022-12-28T01:36:58.359Z,5.46
2022-12-28T01:39:03.609Z,5.48
2022-12-28T01:41:11.130Z,5.49
2022-12-28T01:43:15.449Z,5.48
2022-12-28T01:45:31.505Z,5.47
2022-12-28T01:47:35.601Z,5.46
2022-12-28T01:49:44.897Z,5.45
2022-12-28T01:51:53.787Z,5.46
2022-12-28T01:53:59.324Z,5.47
2022-12-28T01:56:00.986Z,5.47
2022-12-28T01:58:08.833Z,5.47
2022-12-28T02:00:13.228Z,5.45
2022-12-28T02:02:15.804Z,5.47
2022-12-28T02:04:17.994Z,5.49
2022-12-28T02:06:20.232Z,5.48
2022-12-28T02:08:37.154Z,5.50
2022-12-28T02:10:45.476Z,5.50
2022-12-28T02:12:47.654Z,5.48
2022-12-28T02:14:49.267Z,5.50
2022-12-28T02:16:52.241Z,5.52
2022-12-28T02:18:54.713Z,5.53
2022-12-28T02:21:06.648Z,5.52
2022-12-28T02:23:26.717Z,5.51
2022-12-28T02:25:52.122Z,5.50
2022-12-28T02:28:09.640Z,5.48
2022-12-28T02:30:14.081Z,5.51
2022-12-28T02:32:52.804Z,5.48
2022-12-28T02:35:08.624Z,5.50
2022-12-28T02:37:19.444Z,5.50
2022-12-28T02:39:24.775Z,5.48
2022-12-28T02:41:26.480Z,5.50
2022-12-28T02:43:28.786Z,5.50
2022-12-28T02:46:00.820Z,5.50
2022-12-28T02:48:20.900Z,5.49
2022-12-28T02:50:30.854Z,5.50
2022-12-28T02:52:54.160Z,5.49
2022-12-28T02:55:59.955Z,5.49
2022-12-28T02:58:33.400Z,5.48
2022-12-28T03:00:55.189Z,5.48
2022-12-28T03:03:10.131Z,5.46
2022-12-28T03:05:42.445Z,5.50
2022-12-28T03:08:17.671Z,5.49
2022-12-28T03:10:32.533Z,5.48
2022-12-28T03:12:43.497Z,5.49
2022-12-28T03:14:49.170Z,5.50
2022-12-28T03:17:13.283Z,5.50
2022-12-28T03:19:34.024Z,5.49
2022-12-28T03:21:56.174Z,5.50
2022-12-28T03:24:18.363Z,5.49
2022-12-28T03:26:41.807Z,5.47
2022-12-28T03:29:04.235Z,5.47
2022-12-28T03:31:15.088Z,5.48
2022-12-28T03:33:22.127Z,5.51
2022-12-28T03:35:39.731Z,5.52
2022-12-28T03:37:52.884Z,5.53
2022-12-28T03:40:10.271Z,5.55
2022-12-28T03:42:54.253Z,5.56
2022-12-28T03:45:03.116Z,5.54
2022-12-28T03:47:11.490Z,5.54
2022-12-28T03:49:13.661Z,5.54
2022-12-28T03:51:20.410Z,5.56
2022-12-28T03:53:28.933Z,5.55
2022-12-28T03:55:32.534Z,5.58
2022-12-28T03:57:36.026Z,5.58
2022-12-28T03:59:40.186Z,5.59
2022-12-28T04:01:42.715Z,5.61
2022-12-28T04:03:44.560Z,5.59
2022-12-28T04:05:46.104Z,5.59
2022-12-28T04:07:48.751Z,5.60
2022-12-28T04:09:50.539Z,5.62
2022-12-28T04:11:52.040Z,5.63
2022-12-28T04:14:10.119Z,5.65
2022-12-28T04:16:16.106Z,5.64
2022-12-28T04:18:18.614Z,5.63
2022-12-28T04:20:20.271Z,5.63
2022-12-28T04:22:24.087Z,5.63
2022-12-28T04:24:25.775Z,5.63
2022-12-28T04:26:28.168Z,5.62
2022-12-28T04:28:31.541Z,5.62
2022-12-28T04:30:52.779Z,5.63
2022-12-28T04:32:55.344Z,5.64
2022-12-28T04:34:57.431Z,5.63
2022-12-28T04:36:58.911Z,5.63
2022-12-28T04:39:01.847Z,5.64
2022-12-28T04:41:04.975Z,5.64
2022-12-28T04:43:06.613Z,5.66
2022-12-28T04:45:08.703Z,5.66
2022-12-28T04:47:10.332Z,5.67
2022-12-28T04:49:11.887Z,5.68
2022-12-28T04:51:17.844Z,5.68
2022-12-28T04:53:19.595Z,5.71
2022-12-28T04:55:32.116Z,5.69
2022-12-28T04:57:34.917Z,5.71
2022-12-28T04:59:36.416Z,5.73
2022-12-28T05:01:38.203Z,5.74
2022-12-28T05:03:41.536Z,5.76
2022-12-28T05:05:43.063Z,5.78
2022-12-28T05:07:44.565Z,5.79
2022-12-28T05:09:45.951Z,5.79
2022-12-28T05:11:47.469Z,5.81
2022-12-28T05:13:49.652Z,5.82
2022-12-28T05:15:51.255Z,5.83
2022-12-28T05:17:54.818Z,5.85
2022-12-28T05:19:56.382Z,5.88
2022-12-28T05:21:58.006Z,5.88
2022-12-28T05:23:59.886Z,5.87
2022-12-28T05:26:01.498Z,5.89
2022-12-28T05:28:03.140Z,5.91
2022-12-28T05:30:05.113Z,5.93
2022-12-28T05:32:06.850Z,5.96
2022-12-28T05:34:08.411Z,5.97
2022-12-28T05:36:18.507Z,5.99
2022-12-28T05:38:20.024Z,6.01
2022-12-28T05:40:21.746Z,6.01
2022-12-28T05:42:23.284Z,6.04
2022-12-28T05:44:24.752Z,6.05
2022-12-28T05:46:30.138Z,6.07
2022-12-28T05:48:34.238Z,6.08
2022-12-28T05:50:35.869Z,6.09
2022-12-28T05:52:38.761Z,6.10
2022-12-28T05:54:40.435Z,6.12
2022-12-28T05:56:41.982Z,6.12
2022-12-28T05:58:45.111Z,6.13
2022-12-28T06:00:46.711Z,6.18
2022-12-28T06:02:48.375Z,6.18
2022-12-28T06:04:49.849Z,6.19
2022-12-28T06:06:51.438Z,6.19
2022-12-28T06:08:52.957Z,6.21
2022-12-28T06:10:54.500Z,6.22
2022-12-28T06:12:55.954Z,6.23
2022-12-28T06:14:57.492Z,6.24
2022-12-28T06:16:59.123Z,6.25
2022-12-28T06:19:08.291Z,6.25
2022-12-28T06:21:15.998Z,6.27
2022-12-28T06:23:17.580Z,6.27
2022-12-28T06:25:19.038Z,6.28
2022-12-28T06:27:20.507Z,6.28
2022-12-28T06:29:21.979Z,6.29
2022-12-28T06:31:26.613Z,6.30
2022-12-28T06:33:28.154Z,6.29
2022-12-28T06:35:29.665Z,6.31
2022-12-28T06:37:31.124Z,6.31
2022-12-28T06:39:32.596Z,6.35
2022-12-28T06:41:34.283Z,6.35
2022-12-28T06:43:37.716Z,6.36
2022-12-28T06:45:39.218Z,6.36
2022-12-28T06:47:40.826Z,6.36
2022-12-28T06:49:42.278Z,6.37
2022-12-28T06:51:43.872Z,6.38
2022-12-28T06:53:46.820Z,6.38
2022-12-28T06:56:03.700Z,6.39
2022-12-28T06:58:05.281Z,6.41
2022-12-28T07:00:07.500Z,6.43
2022-12-28T07:02:10.248Z,6.45
2022-12-28T07:04:12.198Z,6.45
2022-12-28T07:06:16.040Z,6.47
2022-12-28T07:08:18.591Z,6.48
2022-12-28T07:10:20.083Z,6.48
2022-12-28T07:12:21.797Z,6.50
2022-12-28T07:14:23.697Z,6.52
2022-12-28T07:18:29.821Z,6.53
2022-12-28T07:20:35.487Z,6.55
2022-12-28T07:22:41.750Z,6.56
2022-12-28T07:24:43.311Z,6.57
2022-12-28T07:26:44.993Z,6.58
2022-12-28T07:28:47.944Z,6.59
2022-12-28T07:30:49.383Z,6.61
2022-12-28T07:32:50.945Z,6.61
2022-12-28T07:34:52.522Z,6.63
2022-12-28T07:36:54.134Z,6.63
2022-12-28T07:38:56.164Z,6.64
2022-12-28T07:41:06.447Z,6.65
2022-12-28T07:43:08.021Z,6.66
2022-12-28T07:45:12.644Z,6.68
2022-12-28T07:47:16.078Z,6.72
2022-12-28T07:49:17.566Z,6.74
2022-12-28T07:51:22.610Z,6.75
2022-12-28T07:53:24.185Z,6.76
2022-12-28T07:55:29.689Z,6.78
2022-12-28T07:57:31.227Z,6.80
2022-12-28T07:59:32.791Z,6.84
2022-12-28T08:01:36.767Z,6.85
2022-12-28T08:03:39.444Z,6.87
2022-12-28T08:05:40.979Z,6.90
2022-12-28T08:07:42.487Z,6.92
2022-12-28T08:09:44.033Z,6.94
2022-12-28T08:11:46.061Z,6.95
2022-12-28T08:13:49.787Z,6.99
2022-12-28T08:15:57.310Z,7.01
2022-12-28T08:17:58.935Z,7.03
2022-12-28T08:20:00.484Z,7.04
2022-12-28T08:22:02.059Z,7.04
2022-12-28T08:24:05.108Z,7.05
2022-12-28T08:26:12.994Z,7.06
2022-12-28T08:28:14.639Z,7.10
2022-12-28T08:30:16.310Z,7.14
2022-12-28T08:32:17.873Z,7.15
2022-12-28T08:34:27.106Z,7.18
2022-12-28T08:36:29.675Z,7.22
2022-12-28T08:38:31.527Z,7.25
2022-12-28T08:40:33.053Z,7.28
2022-12-28T08:42:34.594Z,7.30
2022-12-28T08:44:36.172Z,7.33
2022-12-28T08:46:38.173Z,7.38
2022-12-28T08:48:40.060Z,7.42
2022-12-28T08:50:41.737Z,7.45
2022-12-28T08:52:43.364Z,7.50
2022-12-28T08:54:44.935Z,7.52
2022-12-28T08:56:47.003Z,7.56
2022-12-28T08:58:49.201Z,7.61
2022-12-28T09:00:50.796Z,7.63
2022-12-28T09:02:52.593Z,7.66
2022-12-28T09:04:54.189Z,7.69
2022-12-28T09:06:55.818Z,7.73
2022-12-28T09:09:06.973Z,7.78
2022-12-28T09:11:13.182Z,7.81
2022-12-28T09:13:14.649Z,7.84
2022-12-28T09:15:16.224Z,7.87
2022-12-28T09:17:17.837Z,7.90
2022-12-28T09:19:21.077Z,7.93
2022-12-28T09:21:23.865Z,7.95
2022-12-28T09:23:25.403Z,8.00
2022-12-28T09:25:27.013Z,8.02
2022-12-28T09:27:28.895Z,8.06
2022-12-28T09:29:30.519Z,8.10
2022-12-28T09:31:35.802Z,8.15
2022-12-28T09:36:19.129Z,8.21
2022-12-28T09:38:20.836Z,8.24
2022-12-28T09:40:22.478Z,8.26
2022-12-28T09:42:28.788Z,8.30
2022-12-28T09:45:05.215Z,8.35
2022-12-28T09:47:28.690Z,8.41
2022-12-28T09:50:03.866Z,8.44
2022-12-28T09:52:14.198Z,8.47
2022-12-28T09:54:15.840Z,8.51
2022-12-28T09:56:37.210Z,8.51
2022-12-28T09:58:46.443Z,8.57
2022-12-28T10:01:01.738Z,8.62
2022-12-28T10:03:11.001Z,8.67
2022-12-28T10:05:12.666Z,8.69
2022-12-28T10:07:14.205Z,8.76
2022-12-28T10:09:30.027Z,8.81
2022-12-28T10:11:39.950Z,8.87
2022-12-28T10:13:57.150Z,8.93
2022-12-28T10:15:58.935Z,8.99
2022-12-28T10:18:00.547Z,9.04
2022-12-28T10:20:02.136Z,9.10
2022-12-28T10:25:59.761Z,9.29
2022-12-28T10:28:06.212Z,9.34
2022-12-28T10:30:16.284Z,9.41
2022-12-28T10:32:19.146Z,9.45
2022-12-28T10:34:22.574Z,9.51
2022-12-28T10:36:31.368Z,9.56
2022-12-28T10:38:34.610Z,9.64
2022-12-28T10:40:39.547Z,9.70
2022-12-28T10:42:43.958Z,9.74
2022-12-28T10:44:49.784Z,9.80
2022-12-28T10:46:57.744Z,9.86
2022-12-28T10:49:02.558Z,9.91
2022-12-28T10:51:16.848Z,9.96
2022-12-28T10:53:32.808Z,10.01
2022-12-28T10:55:34.652Z,10.07
2022-12-28T10:57:37.992Z,10.13
2022-12-28T10:59:40.681Z,10.18
2022-12-28T11:01:43.570Z,10.21
2022-12-28T11:03:57.183Z,10.26
2022-12-28T11:06:21.255Z,10.32
2022-12-28T11:08:27.911Z,10.34
2022-12-28T11:10:30.658Z,10.37
2022-12-28T11:12:34.557Z,10.40
2022-12-28T11:14:37.708Z,10.45
2022-12-28T11:16:40.684Z,10.49
2022-12-28T11:18:42.491Z,10.53
2022-12-28T11:20:54.088Z,10.56
2022-12-28T11:22:55.756Z,10.60
2022-12-28T11:25:00.407Z,10.65
2022-12-28T11:27:03.386Z,10.67
2022-12-28T11:29:05.203Z,10.72
2022-12-28T11:31:09.535Z,10.75
2022-12-28T11:33:39.516Z,10.79
2022-12-28T11:35:44.984Z,10.83
2022-12-28T11:37:58.111Z,10.87
2022-12-28T11:40:01.679Z,10.91
2022-12-28T11:42:37.394Z,10.93
2022-12-28T11:44:32.736Z,10.97
2022-12-28T11:46:42.547Z,11.02
2022-12-28T11:48:44.143Z,11.06
2022-12-28T11:50:52.839Z,11.09
2022-12-28T11:52:54.606Z,11.13
2022-12-28T11:55:28.922Z,11.15
2022-12-28T11:57:43.894Z,11.17
2022-12-28T11:59:45.410Z,11.22
2022-12-28T12:01:48.642Z,11.27
2022-12-28T12:03:58.975Z,11.30
2022-12-28T12:06:00.571Z,11.35
2022-12-28T12:08:22.515Z,11.38
2022-12-28T12:10:34.139Z,11.42
2022-12-28T12:12:37.704Z,11.49
2022-12-28T12:14:51.916Z,11.56
2022-12-28T12:17:03.996Z,11.64
2022-12-28T12:19:09.067Z,11.70
2022-12-28T12:21:26.945Z,11.75
2022-12-28T12:23:39.119Z,11.81
2022-12-28T12:25:43.869Z,11.87
2022-12-28T12:27:53.746Z,11.94
2022-12-28T12:30:07.655Z,12.00
2022-12-28T12:32:25.880Z,12.02
2022-12-28T12:34:42.740Z,12.10
2022-12-28T12:37:11.646Z,12.18
2022-12-28T12:39:31.777Z,12.24
2022-12-28T12:41:49.369Z,12.32
2022-12-28T12:44:02.692Z,12.36
2022-12-28T12:50:36.854Z,12.45
2022-12-28T12:53:06.255Z,12.50
2022-12-28T12:55:16.715Z,12.52
2022-12-28T12:57:25.688Z,12.53
2022-12-28T12:59:50.610Z,12.59
2022-12-28T13:02:29.903Z,12.64
2022-12-28T13:04:35.346Z,12.66
2022-12-28T13:06:39.520Z,12.70
2022-12-28T13:08:48.234Z,12.72
2022-12-28T13:10:51.230Z,12.74
2022-12-28T13:12:57.919Z,12.77
2022-12-28T13:15:03.844Z,12.80
2022-12-28T13:17:20.826Z,12.81
2022-12-28T13:19:28.419Z,12.83
2022-12-28T13:21:41.162Z,12.85
2022-12-28T13:23:45.222Z,12.85
2022-12-28T13:25:51.442Z,12.85
2022-12-28T13:27:56.548Z,12.84
2022-12-28T13:29:58.616Z,12.84
2022-12-28T13:32:00.377Z,12.83
2022-12-28T13:34:15.080Z,12.80
2022-12-28T13:36:20.517Z,12.79
2022-12-28T13:38:22.126Z,12.77
2022-12-28T13:40:24.515Z,12.77
2022-12-28T13:42:35.521Z,12.73
2022-12-28T13:44:48.080Z,12.73
2022-12-28T13:46:56.915Z,12.71
2022-12-28T13:48:59.483Z,12.70
2022-12-28T13:51:01.396Z,12.69
2022-12-28T13:53:07.834Z,12.69
2022-12-28T13:55:20.369Z,12.65
2022-12-28T13:57:50.318Z,12.65
2022-12-28T13:59:57.584Z,12.61
2022-12-28T14:01:59.528Z,12.58
2022-12-28T14:04:42.257Z,12.58
2022-12-28T14:06:27.673Z,12.55
2022-12-28T14:08:33.863Z,12.56
2022-12-28T14:10:36.234Z,12.55
2022-12-28T14:12:41.531Z,12.50
2022-12-28T14:14:45.114Z,12.51
2022-12-28T14:17:12.421Z,12.47
2022-12-28T14:19:14.206Z,12.46
2022-12-28T14:21:31.487Z,12.47
2022-12-28T14:23:40.434Z,12.45
2022-12-28T14:25:43.098Z,12.45
2022-12-28T14:27:57.251Z,12.45
2022-12-28T14:29:59.385Z,12.42
2022-12-28T14:32:04.209Z,12.44
2022-12-28T14:34:19.769Z,12.42
2022-12-28T14:36:26.395Z,12.39
2022-12-28T14:38:47.277Z,12.37
2022-12-28T14:40:54.570Z,12.39
2022-12-28T14:43:19.063Z,12.36
2022-12-28T14:46:07.072Z,12.34
2022-12-28T14:48:24.168Z,12.33
2022-12-28T14:50:31.881Z,12.33
2022-12-28T14:52:40.747Z,12.31
2022-12-28T14:54:47.681Z,12.30
2022-12-28T14:57:18.209Z,12.28
2022-12-28T14:59:26.878Z,12.28
2022-12-28T15:01:46.290Z,12.26
2022-12-28T15:03:53.750Z,12.26
2022-12-28T15:06:01.302Z,12.23
2022-12-28T15:08:03.059Z,12.26
2022-12-28T15:10:05.693Z,12.23
2022-12-28T15:12:13.313Z,12.22
2022-12-28T15:14:19.324Z,12.22
2022-12-28T15:16:23.328Z,12.22
2022-12-28T15:18:25.861Z,12.20
2022-12-28T15:20:30.361Z,12.19
2022-12-28T15:22:34.631Z,12.18
2022-12-28T15:24:36.232Z,12.17
2022-12-28T15:26:37.853Z,12.16
2022-12-28T15:28:43.260Z,12.14
2022-12-28T15:30:47.664Z,12.14
2022-12-28T15:32:49.283Z,12.13
2022-12-28T15:34:53.609Z,12.14
2022-12-28T15:36:55.365Z,12.12
2022-12-28T15:38:57.237Z,12.12
2022-12-28T15:41:01.156Z,12.09
2022-12-28T15:43:02.813Z,12.07
2022-12-28T15:45:05.174Z,12.05
2022-12-28T15:47:07.065Z,12.05
2022-12-28T15:49:12.214Z,12.04
2022-12-28T15:51:14.336Z,12.03
2022-12-28T15:53:17.489Z,12.01
2022-12-28T15:55:18.892Z,12.00
2022-12-28T15:57:20.584Z,11.97
2022-12-28T15:59:22.361Z,11.97
2022-12-28T16:01:25.945Z,11.97
2022-12-28T16:03:27.903Z,11.97
2022-12-28T16:05:29.322Z,11.95
2022-12-28T16:07:30.809Z,11.95
2022-12-28T16:09:32.641Z,11.95
2022-12-28T16:11:34.159Z,11.95
2022-12-28T16:13:38.541Z,11.92
2022-12-28T16:15:40.070Z,11.90
2022-12-28T16:17:51.331Z,11.88
2022-12-28T16:19:56.826Z,11.88
2022-12-28T16:21:58.590Z,11.88
2022-12-28T16:24:01.283Z,11.87
2022-12-28T16:26:03.105Z,11.86
2022-12-28T16:28:04.853Z,11.86
2022-12-28T16:30:07.048Z,11.85
2022-12-28T16:32:16.160Z,11.83
2022-12-28T16:34:21.106Z,11.84
2022-12-28T16:36:23.466Z,11.82
2022-12-28T16:38:28.031Z,11.81
2022-12-28T16:40:29.757Z,11.81
2022-12-28T16:42:37.735Z,11.80
2022-12-28T16:44:39.698Z,11.76
2022-12-28T16:46:42.466Z,11.79
2022-12-28T16:48:46.989Z,11.77
2022-12-28T16:50:59.436Z,11.76
2022-12-28T16:53:05.407Z,11.76
2022-12-28T16:55:09.742Z,11.75
2022-12-28T16:57:11.444Z,11.72
2022-12-28T16:59:15.807Z,11.71
2022-12-28T17:01:18.612Z,11.70
2022-12-28T17:03:20.263Z,11.69
2022-12-28T17:05:22.234Z,11.68
2022-12-28T17:07:23.890Z,11.67
2022-12-28T17:09:27.607Z,11.65
2022-12-28T17:11:29.021Z,11.64
2022-12-28T17:13:34.033Z,11.61
2022-12-28T17:15:38.947Z,11.61
2022-12-28T17:17:40.412Z,11.60
2022-12-28T17:19:42.121Z,11.58
2022-12-28T17:21:47.514Z,11.58
2022-12-28T17:23:48.939Z,11.55
2022-12-28T17:25:54.396Z,11.54
2022-12-28T17:27:58.216Z,11.51
2022-12-28T17:30:00.236Z,11.49
2022-12-28T17:32:01.822Z,11.47
2022-12-28T17:34:03.790Z,11.45
2022-12-28T17:36:05.697Z,11.43
2022-12-28T17:38:10.477Z,11.41
2022-12-28T17:40:13.031Z,11.40
2022-12-28T17:42:17.285Z,11.38
2022-12-28T17:44:18.792Z,11.38
2022-12-28T17:46:21.400Z,11.35
2022-12-28T17:48:27.771Z,11.33
2022-12-28T17:50:29.376Z,11.30
2022-12-28T17:52:30.883Z,11.28
2022-12-28T17:54:32.881Z,11.26
2022-12-28T17:56:37.527Z,11.24
2022-12-28T17:58:43.917Z,11.24
2022-12-28T18:00:45.511Z,11.24
2022-12-28T18:02:47.253Z,11.19
2022-12-28T18:04:49.101Z,11.19
2022-12-28T18:06:50.506Z,11.19
2022-12-28T18:08:52.215Z,11.14
2022-12-28T18:10:54.034Z,11.14
2022-12-28T18:12:55.625Z,11.12
2022-12-28T18:14:57.272Z,11.11
2022-12-28T18:16:58.904Z,11.08
2022-12-28T18:19:00.731Z,11.07
2022-12-28T18:21:05.379Z,11.05
2022-12-28T18:23:07.016Z,11.03
2022-12-28T18:25:09.257Z,11.02
2022-12-28T18:27:11.089Z,10.99
2022-12-28T18:29:13.035Z,10.96
2022-12-28T18:31:14.966Z,10.96
2022-12-28T18:33:16.745Z,10.94
2022-12-28T18:35:18.713Z,10.92
2022-12-28T18:37:27.365Z,10.89
2022-12-28T18:39:31.792Z,10.87
2022-12-28T18:41:40.886Z,10.86
2022-12-28T18:43:48.707Z,10.85
2022-12-28T18:45:55.696Z,10.83
2022-12-28T18:47:57.354Z,10.83
2022-12-28T18:49:59.049Z,10.83
2022-12-28T18:52:04.083Z,10.80
2022-12-28T18:54:05.848Z,10.77
2022-12-28T18:56:13.370Z,10.77
2022-12-28T18:58:15.721Z,10.73
2022-12-28T19:00:20.207Z,10.72
2022-12-28T19:02:21.863Z,10.71
2022-12-28T19:04:23.755Z,10.69
2022-12-28T19:06:26.136Z,10.68
2022-12-28T19:08:28.183Z,10.67
2022-12-28T19:10:30.311Z,10.67
2022-12-28T19:12:32.082Z,10.66
2022-12-28T19:14:33.752Z,10.64
2022-12-28T19:16:35.560Z,10.64
2022-12-28T19:18:39.942Z,10.63
2022-12-28T19:20:43.833Z,10.61
2022-12-28T19:22:47.346Z,10.61
2022-12-28T19:24:48.987Z,10.59
2022-12-28T19:26:53.875Z,10.60
2022-12-28T19:28:55.796Z,10.57
2022-12-28T19:31:04.430Z,10.56
2022-12-28T19:33:06.924Z,10.54
2022-12-28T19:35:08.868Z,10.54
2022-12-28T19:37:13.459Z,10.53
2022-12-28T19:39:15.201Z,10.52
2022-12-28T19:41:16.958Z,10.51
2022-12-28T19:43:18.683Z,10.51
2022-12-28T19:45:20.422Z,10.52
2022-12-28T19:47:21.992Z,10.49
2022-12-28T19:49:23.821Z,10.50
2022-12-28T19:51:31.306Z,10.46
2022-12-28T19:53:35.592Z,10.46
2022-12-28T19:55:40.684Z,10.47
2022-12-28T19:57:42.216Z,10.45
2022-12-28T19:59:43.834Z,10.42
2022-12-28T20:01:45.559Z,10.43
2022-12-28T20:03:47.567Z,10.39
2022-12-28T20:05:52.054Z,10.37
2022-12-28T20:07:56.692Z,10.36
2022-12-28T20:10:00.893Z,10.35
2022-12-28T20:12:02.442Z,10.36
2022-12-28T20:14:04.622Z,10.36
2022-12-28T20:16:06.699Z,10.36
2022-12-28T20:18:08.397Z,10.32
2022-12-28T20:20:10.148Z,10.33
2022-12-28T20:22:11.838Z,10.35
2022-12-28T20:24:13.462Z,10.32
2022-12-28T20:26:18.781Z,10.31
2022-12-28T20:28:21.622Z,10.29
2022-12-28T20:30:23.169Z,10.29
2022-12-28T20:32:24.796Z,10.28
2022-12-28T20:34:27.375Z,10.28
2022-12-28T20:36:31.929Z,10.26
2022-12-28T20:38:34.521Z,10.26
2022-12-28T20:40:36.857Z,10.25
2022-12-28T20:42:59.092Z,10.23
2022-12-28T20:45:00.679Z,10.19
2022-12-28T20:47:02.733Z,10.19
2022-12-28T20:49:05.486Z,10.15
2022-12-28T20:51:06.961Z,10.17
2022-12-28T20:53:15.186Z,10.16
2022-12-28T20:55:22.699Z,10.14
2022-12-28T20:57:24.372Z,10.15
2022-12-28T20:59:26.372Z,10.15
2022-12-28T21:01:28.172Z,10.15
2022-12-28T21:03:29.939Z,10.13
2022-12-28T21:05:34.632Z,10.11
2022-12-28T21:07:36.234Z,10.12
2022-12-28T21:09:37.837Z,10.10
2022-12-28T21:11:39.610Z,10.10
2022-12-28T21:13:44.961Z,10.07
2022-12-28T21:15:48.100Z,10.07
2022-12-28T21:17:49.882Z,10.03
2022-12-28T21:19:51.657Z,10.02
2022-12-28T21:21:53.504Z,9.99
2022-12-28T21:23:55.087Z,9.97
2022-12-28T21:26:02.865Z,9.95
2022-12-28T21:28:07.768Z,9.95
2022-12-28T21:30:09.952Z,9.95
2022-12-28T21:32:11.727Z,9.92
2022-12-28T21:34:15.837Z,9.90
2022-12-28T21:36:19.400Z,9.89
2022-12-28T21:38:20.936Z,9.85
2022-12-28T21:40:22.491Z,9.83
2022-12-28T21:42:27.712Z,9.82
2022-12-28T21:44:29.197Z,9.84
2022-12-28T21:46:30.808Z,9.85
2022-12-28T21:48:34.045Z,9.82
2022-12-28T21:50:35.758Z,9.80
2022-12-28T21:52:38.241Z,9.76
2022-12-28T21:54:39.714Z,9.77
2022-12-28T21:56:43.062Z,9.79
2022-12-28T21:58:47.987Z,9.77
2022-12-28T22:01:08.611Z,9.73
2022-12-28T22:03:30.698Z,9.69
2022-12-28T22:05:47.567Z,9.70
2022-12-28T22:08:10.234Z,9.71
2022-12-28T22:10:31.151Z,9.68
2022-12-28T22:12:37.411Z,9.70
2022-12-28T22:14:39.099Z,9.66
2022-12-28T22:16:40.832Z,9.68
2022-12-28T22:21:05.074Z,9.70
2022-12-28T22:23:08.973Z,9.73
2022-12-28T22:25:12.218Z,9.74
2022-12-28T22:27:14.018Z,9.74
2022-12-28T22:29:16.792Z,9.75
2022-12-28T22:31:18.353Z,9.75
2022-12-28T22:33:19.951Z,9.76
2022-12-28T22:35:22.317Z,9.76
2022-12-28T22:37:23.808Z,9.77
2022-12-28T22:39:25.679Z,9.78
2022-12-28T22:41:30.301Z,9.79
2022-12-28T22:43:32.211Z,9.79
2022-12-28T22:45:33.994Z,9.78
2022-12-28T22:47:35.662Z,9.79
2022-12-28T22:49:37.339Z,9.78
2022-12-28T22:51:38.808Z,9.83
2022-12-28T22:53:40.857Z,9.84
2022-12-28T22:55:42.474Z,9.83
2022-12-28T22:57:44.375Z,9.86
2022-12-28T22:59:48.329Z,9.86
2022-12-28T23:01:49.941Z,9.85
2022-12-28T23:03:51.692Z,9.90
2022-12-28T23:05:53.294Z,9.89
2022-12-28T23:07:54.824Z,9.88
2022-12-28T23:10:01.819Z,9.88
2022-12-28T23:12:06.691Z,9.88
2022-12-28T23:14:42.643Z,9.91
2022-12-28T23:16:44.928Z,9.90
2022-12-28T23:19:05.423Z,9.90
2022-12-28T23:21:28.627Z,9.95
2022-12-28T23:23:48.996Z,9.95
2022-12-28T23:26:09.290Z,9.95
2022-12-28T23:28:14.221Z,9.94
2022-12-28T23:30:21.054Z,9.93
2022-12-28T23:32:22.587Z,9.93
2022-12-28T23:34:24.261Z,9.93
2022-12-28T23:36:25.900Z,9.93
2022-12-28T23:38:27.391Z,9.95
2022-12-28T23:40:29.030Z,9.98
2022-12-28T23:42:30.521Z,10.00
2022-12-28T23:44:32.007Z,10.01
2022-12-28T23:46:33.783Z,10.03
2022-12-28T23:48:35.329Z,10.05
2022-12-28T23:50:38.970Z,10.06
2022-12-28T23:52:41.362Z,10.11
2022-12-28T23:54:42.967Z,10.12
2022-12-28T23:56:45.377Z,10.11
2022-12-28T23:58:49.597Z,10.12
